map of KMYJ home
KMYJ - Airport
Location
City:  Mexico, Missouri, United States
Name:Mexico Memorial Airport
ICAO:KMYJ
FAA LID:MYJ

Details
Type:Airport (Airfield)
Use:Public/Civil
Latitude:3909'27"N (39.157500)
Longitude:9149'06"W (-91.818277)
Datum:WGS 1984
Elevation:822 ft (251 m)
Variation:0.37W (WMM2015 magnetic declination)
-0.09 annual change
Runways:2
Longest:5501 × 100 ft (1677 × 30.5 m), paved

Time
Time Zone:UTC-6 (DST-5)
Local Time:

Weather
METAR:KMYJ 140215Z AUTO 32011G17KT 10SM SCT046 04/M01 A2980 RMK AO2

Related Locations
Nearby:
Farthest:MQZ: 10908 mi / 17555 km
Margaret River [Margaret River Airport], WA, AU

Find:

   beyond  
but within

Other Information
Maps:
NOTAMs:
Links:
Sources:

  
flag of United States
flag of Missouri
  

Sectional Chart

Flight Planning
at skyvector.com

Satellite Image

Google Maps Satellite view

 

Copyright © 2004-2017 Karl L. Swartz. All rights reserved.
The Great Circle Mapper name and logo are trademarks of the Great Circle Mapper.
All other trademarks mentioned herein belong to their respective owners.
Please see credits for attibutions and further copyright information.

  Follow gcmap on Facebook Follow gcmap on Twitter Follow gcmap on Google+ GCmap on LinkedIn

hCard Microformat

Geo Microformat